الصفحة الرئيسية
METAR-TAF:

METAR-TAF

مطار :

بنوم بنه, كمبوديا

دائرة عرض: 11-33N, خط طول: 104-51E, ارتفاع: 10 متر

مراقبة الطقس الحالي

تاريخ ووقت الإصدار 18 دقيقة قبل الساعة 05:30UTC
ريح 6 عقدة من الجنوب/الجنوب الشرقي, الاتجاه يتراوح بين الشرق/الجنوب الشرقي و الجنوب الغربي
درجة الحرارة 35°درجة مئوية
الرطوبة 50%
ضغط 1009 hPa
الرؤية 10 كم أو أكثر
غيوم متفرقة على ارتفاع 1700 قدم

METAR: VDPP 130530Z 16006KT 120V230 9999 SCT017 35/23 Q1009

زمن: 12:48 (05:48 UTC)

توقعات

تاريخ ووقت الإصدار 48 دقيقة قبل الساعة 05:00UTC
التوقعات صالحة من13 الساعة 06 UTC إلى 13 الساعة 24 UTC
ريح 9 عقدة من الجنوب
الرؤية 10 كم أو أكثر
غيوم متفرقة على ارتفاع 1700 قدم

TAF: VDPP 130500Z 1306/1324 17009KT 9999 SCT017

أرصاد الطقس والتوقعات من أكثر من 4000 مطار (تقارير الطقس للمطار METAR والتنبؤ بالطقس بالمطارTAF).

المحطات المتاحة هي النقط الصفراء والحمراء على الخريطة.

حرك المؤشر فوق النقطة لمعرفة اسم المحطة.

ثم انقر لمعرفة أرصاد وتوقعات الطقس.

لتغيير الخارطة: اضغط على الأزرار الخضراء مع رمز الصليب الأسود للتكبير. على الزر الأخضر مع شرطة للتصغير، أو على الأسهم الخضراء للخرائط المجاورة.


METAR-TAF: